Time;durP1;ratioP1;P1;durP2;ratioP2;P2;SDS_P1;SDS_P2;PMS_P1;PMS_P2;Temp;Humidity;BMP_temperature;BMP_pressure;BME280_temperature;BME280_humidity;BME280_pressure;Samples;Min_cycle;Max_cycle;Signal;HPM_P1;HPM_P2
2024/02/12 00:00:19;;;;;;;3.03;2.07;;;;;;;10.08;88.94;92268.59;517438;28;1619;-71
2024/02/12 00:00:36;;;;;;;2.60;2.30;;;;;;;10.03;88.87;92267.56;517410;28;983;-71
2024/02/12 00:00:54;;;;;;;2.22;2.03;;;;;;;10.05;89.02;92267.00;517350;28;887;-71
2024/02/12 00:01:10;;;;;;;3.53;2.00;;;;;;;10.08;88.99;92263.81;517339;28;948;-71
2024/02/12 00:01:29;;;;;;;5.07;2.40;;;;;;;10.10;88.99;92257.72;517419;28;1021;-71
2024/02/12 00:01:45;;;;;;;3.55;2.10;;;;;;;10.13;88.53;92273.16;517553;28;828;-71
2024/02/12 00:02:02;;;;;;;2.25;2.05;;;;;;;10.12;88.42;92266.16;517436;28;1019;-71
2024/02/12 00:02:21;;;;;;;2.20;2.00;;;;;;;10.12;88.30;92266.91;519641;28;1034;-71
2024/02/12 00:02:39;;;;;;;2.38;2.17;;;;;;;10.14;88.45;92272.56;519612;28;933;-71
2024/02/12 00:02:55;;;;;;;2.65;2.28;;;;;;;10.17;88.37;92265.19;519594;28;844;-71
2024/02/12 00:03:11;;;;;;;3.70;2.30;;;;;;;10.18;88.20;92278.38;519642;28;829;-71
2024/02/12 00:03:26;;;;;;;4.32;2.70;;;;;;;10.18;88.02;92272.88;519540;28;865;-71
2024/02/12 00:03:42;;;;;;;3.70;2.65;;;;;;;10.16;87.73;92275.47;519560;28;833;-71
2024/02/12 00:03:57;;;;;;;3.73;2.30;;;;;;;10.14;87.83;92271.84;519629;28;757;-71
2024/02/12 00:04:13;;;;;;;3.72;2.30;;;;;;;10.12;87.49;92269.66;519602;28;828;-71
2024/02/12 00:04:29;;;;;;;3.63;2.40;;;;;;;10.11;87.63;92264.72;519591;28;891;-71
2024/02/12 00:04:46;;;;;;;2.93;2.43;;;;;;;10.09;87.61;92265.25;519677;28;753;-70
2024/02/12 00:05:05;;;;;;;2.50;2.30;;;;;;;10.07;87.63;92267.84;519474;28;946;-70
2024/02/12 00:05:21;;;;;;;2.90;2.58;;;;;;;10.06;87.50;92268.44;519611;28;880;-70
2024/02/12 00:05:36;;;;;;;3.10;2.60;;;;;;;10.09;87.74;92272.81;519685;28;839;-71
2024/02/12 00:05:52;;;;;;;5.00;2.70;;;;;;;10.10;87.81;92269.47;519650;28;847;-70
2024/02/12 00:06:08;;;;;;;5.32;2.90;;;;;;;10.13;87.67;92275.91;519583;28;816;-70
2024/02/12 00:06:24;;;;;;;3.00;2.57;;;;;;;10.15;87.43;92273.31;519632;28;757;-70
2024/02/12 00:06:40;;;;;;;3.05;2.67;;;;;;;10.17;87.38;92274.19;519579;28;887;-70
2024/02/12 00:06:59;;;;;;;3.40;3.08;;;;;;;10.17;87.05;92271.44;519563;28;932;-70
2024/02/12 00:07:16;;;;;;;3.70;3.03;;;;;;;10.18;86.92;92269.41;519632;28;1098;-70
2024/02/12 00:07:32;;;;;;;4.80;2.92;;;;;;;10.22;86.83;92272.47;519455;28;828;-70
2024/02/12 00:07:48;;;;;;;4.72;2.92;;;;;;;10.22;87.10;92272.47;519645;28;841;-70
2024/02/12 00:08:07;;;;;;;4.87;3.20;;;;;;;10.21;87.09;92274.50;519637;28;856;-71
2024/02/12 00:08:23;;;;;;;3.58;2.70;;;;;;;10.21;86.79;92277.25;519574;28;914;-70
2024/02/12 00:08:38;;;;;;;2.77;2.50;;;;;;;10.22;86.72;92270.41;519615;28;778;-70
2024/02/12 00:08:53;;;;;;;3.03;2.73;;;;;;;10.25;86.58;92277.56;519587;28;941;-71
2024/02/12 00:09:09;;;;;;;3.20;2.90;;;;;;;10.26;86.63;92278.28;519584;28;773;-70
2024/02/12 00:09:25;;;;;;;3.05;2.75;;;;;;;10.27;86.36;92272.19;519559;28;869;-71
2024/02/12 00:09:41;;;;;;;3.00;2.70;;;;;;;10.25;86.14;92274.81;519638;28;749;-71
2024/02/12 00:09:56;;;;;;;3.17;2.85;;;;;;;10.23;86.08;92285.69;519551;28;841;-71
2024/02/12 00:10:12;;;;;;;3.43;2.83;;;;;;;9.99;85.98;92247.22;519230;28;849;-71
2024/02/12 00:10:27;;;;;;;3.35;2.75;;;;;;;10.20;85.96;92286.81;519482;28;809;-70
2024/02/12 00:10:43;;;;;;;2.95;2.60;;;;;;;10.21;86.02;92285.53;519595;28;864;-70
2024/02/12 00:10:59;;;;;;;3.27;2.60;;;;;;;10.23;85.67;92287.72;519621;28;781;-70
2024/02/12 00:11:14;;;;;;;3.17;2.60;;;;;;;10.23;85.72;92293.22;519664;28;789;-70
2024/02/12 00:11:30;;;;;;;2.70;2.50;;;;;;;10.23;85.20;92282.19;519572;28;820;-71
2024/02/12 00:11:45;;;;;;;2.70;2.50;;;;;;;10.23;84.88;92288.44;519595;28;856;-71
2024/02/12 00:12:01;;;;;;;3.15;2.50;;;;;;;10.24;84.88;92284.38;519597;28;872;-70
2024/02/12 00:12:16;;;;;;;3.47;2.63;;;;;;;10.22;84.50;92291.78;519577;28;781;-71
2024/02/12 00:12:32;;;;;;;2.60;2.40;;;;;;;10.18;83.93;92285.97;519585;28;766;-71
2024/02/12 00:12:49;;;;;;;2.78;2.20;;;;;;;10.13;83.58;92281.44;519544;28;960;-70
2024/02/12 00:13:05;;;;;;;3.03;2.28;;;;;;;10.08;83.03;92279.63;519539;28;1552;-70
2024/02/12 00:13:21;;;;;;;2.58;2.10;;;;;;;10.10;83.34;92283.28;519567;28;844;-70
2024/02/12 00:13:38;;;;;;;3.17;2.07;;;;;;;10.01;82.86;92281.19;519694;28;868;-70
2024/02/12 00:13:56;;;;;;;3.38;2.10;;;;;;;9.98;82.78;92282.34;519603;28;896;-70
2024/02/12 00:14:11;;;;;;;4.63;2.30;;;;;;;9.97;83.01;92282.91;519638;28;816;-71
2024/02/12 00:14:27;;;;;;;4.03;2.30;;;;;;;9.95;82.86;92286.25;519502;28;813;-71
2024/02/12 00:14:44;;;;;;;2.33;1.77;;;;;;;9.98;82.66;92285.13;519582;28;927;-71
2024/02/12 00:15:00;;;;;;;2.33;1.83;;;;;;;9.92;82.69;92279.09;519466;28;852;-71
2024/02/12 00:15:16;;;;;;;2.72;2.13;;;;;;;9.83;82.25;92280.50;519542;28;861;-71
2024/02/12 00:15:31;;;;;;;4.05;2.50;;;;;;;9.82;82.36;92289.38;519525;28;832;-70
2024/02/12 00:15:46;;;;;;;3.73;2.40;;;;;;;9.84;82.42;92278.50;519590;28;749;-70
2024/02/12 00:16:05;;;;;;;2.95;1.95;;;;;;;9.83;82.74;92277.75;519543;28;959;-70
2024/02/12 00:16:22;;;;;;;3.22;2.08;;;;;;;9.85;82.50;92293.75;519618;28;860;-70
2024/02/12 00:16:40;;;;;;;3.13;2.28;;;;;;;9.83;82.57;92296.34;519627;28;872;-70
2024/02/12 00:16:55;;;;;;;3.17;1.95;;;;;;;9.77;82.35;92288.31;519499;28;988;-71
2024/02/12 00:17:13;;;;;;;4.10;1.80;;;;;;;9.75;82.02;92293.69;519541;28;832;-70
2024/02/12 00:17:28;;;;;;;3.25;1.73;;;;;;;9.70;81.95;92291.91;519570;28;813;-71
2024/02/12 00:17:44;;;;;;;3.37;1.50;;;;;;;9.67;81.09;92297.84;519588;28;1954;-70
2024/02/12 00:17:59;;;;;;;3.58;1.38;;;;;;;9.67;81.12;92286.81;519544;28;824;-70
2024/02/12 00:18:15;;;;;;;1.93;1.43;;;;;;;9.68;81.24;92285.53;519629;28;979;-70
2024/02/12 00:18:31;;;;;;;1.67;1.48;;;;;;;9.71;81.18;92287.84;519529;28;884;-70
2024/02/12 00:18:46;;;;;;;2.45;1.70;;;;;;;9.67;81.01;92286.81;519560;28;1154;-70
2024/02/12 00:19:02;;;;;;;2.23;1.70;;;;;;;9.64;80.71;92291.44;519587;28;845;-71
2024/02/12 00:19:17;;;;;;;2.95;1.52;;;;;;;9.51;80.49;92275.25;519592;28;833;-71
2024/02/12 00:19:37;;;;;;;2.97;1.23;;;;;;;9.65;80.53;92292.16;519624;28;774;-70
2024/02/12 00:19:52;;;;;;;1.63;1.23;;;;;;;9.63;80.42;92295.50;519565;28;958;-71
2024/02/12 00:20:11;;;;;;;1.97;1.47;;;;;;;9.51;80.62;92302.06;519479;28;805;-71
2024/02/12 00:20:29;;;;;;;4.15;1.40;;;;;;;9.47;80.46;92288.72;519590;28;892;-71
2024/02/12 00:20:44;;;;;;;5.53;1.50;;;;;;;9.40;80.78;92291.56;519657;28;821;-71
2024/02/12 00:21:00;;;;;;;4.20;1.70;;;;;;;9.40;80.79;92294.31;519541;28;761;-71
2024/02/12 00:21:15;;;;;;;1.60;1.40;;;;;;;9.43;80.70;92299.41;519606;28;777;-70
2024/02/12 00:21:31;;;;;;;1.53;1.30;;;;;;;9.47;80.95;92308.00;519563;28;750;-71
2024/02/12 00:21:48;;;;;;;1.75;1.27;;;;;;;9.49;80.91;92308.16;519609;28;953;-70
2024/02/12 00:22:04;;;;;;;2.00;1.30;;;;;;;9.52;80.63;92300.78;519592;28;824;-70
2024/02/12 00:22:20;;;;;;;2.90;1.30;;;;;;;9.48;80.74;92309.47;519529;28;924;-71
2024/02/12 00:22:38;;;;;;;3.08;1.23;;;;;;;9.48;80.66;92309.47;519625;28;809;-70
2024/02/12 00:22:53;;;;;;;2.63;1.30;;;;;;;9.40;80.98;92305.34;519456;28;888;-71
2024/02/12 00:23:08;;;;;;;2.38;1.20;;;;;;;9.39;80.82;92312.88;519613;28;781;-70
2024/02/12 00:23:24;;;;;;;1.57;1.00;;;;;;;9.39;80.74;92320.41;519661;28;837;-70
2024/02/12 00:23:39;;;;;;;1.73;1.05;;;;;;;9.35;81.01;92318.06;519568;28;860;-71
2024/02/12 00:23:55;;;;;;;2.67;1.30;;;;;;;9.39;81.23;92321.13;519567;28;757;-70
2024/02/12 00:24:11;;;;;;;4.20;1.50;;;;;;;9.42;81.19;92319.28;519544;28;817;-71
2024/02/12 00:24:28;;;;;;;3.70;1.50;;;;;;;9.40;80.92;92325.31;519599;28;829;-70
2024/02/12 00:24:43;;;;;;;1.98;1.48;;;;;;;9.43;80.78;92323.47;519613;28;825;-70
2024/02/12 00:24:59;;;;;;;3.00;1.47;;;;;;;9.42;80.79;92328.25;519557;28;1016;-70
2024/02/12 00:25:16;;;;;;;3.60;1.23;;;;;;;9.37;80.73;92320.25;519557;28;1110;-71
2024/02/12 00:25:33;;;;;;;3.03;1.00;;;;;;;9.32;80.63;92321.22;519530;28;808;-71
2024/02/12 00:25:48;;;;;;;2.80;1.17;;;;;;;9.32;80.37;92318.44;519611;28;1093;-71
2024/02/12 00:26:05;;;;;;;2.10;1.10;;;;;;;9.33;80.47;92325.44;517331;28;2151;-71
2024/02/12 00:26:25;;;;;;;3.20;0.90;;;;;;;9.29;80.55;92322.34;517389;28;903;-70
2024/02/12 00:26:41;;;;;;;3.22;0.80;;;;;;;9.30;80.57;92324.53;517430;28;916;-71
2024/02/12 00:27:03;;;;;;;2.67;0.80;;;;;;;9.25;80.46;92311.03;517298;28;857;-71
2024/02/12 00:27:20;;;;;;;2.25;0.90;;;;;;;9.24;80.31;92324.06;517267;28;921;-71
2024/02/12 00:27:36;;;;;;;1.25;0.88;;;;;;;9.20;80.24;92317.50;517443;28;849;-71
2024/02/12 00:27:51;;;;;;;1.23;0.80;;;;;;;9.21;80.34;92318.94;517466;28;849;-70
2024/02/12 00:28:10;;;;;;;2.97;1.05;;;;;;;9.23;80.41;92314.31;519634;28;829;-70
2024/02/12 00:28:28;;;;;;;2.30;1.02;;;;;;;9.25;80.80;92314.47;519462;28;900;-71
2024/02/12 00:28:48;;;;;;;2.03;0.93;;;;;;;9.26;80.65;92317.97;519539;28;992;-70
2024/02/12 00:29:05;;;;;;;1.35;0.80;;;;;;;9.25;80.45;92316.53;519618;28;920;-71
2024/02/12 00:29:21;;;;;;;1.77;0.85;;;;;;;9.21;80.46;92316.91;519593;28;841;-71
2024/02/12 00:29:37;;;;;;;2.50;0.80;;;;;;;9.20;80.29;92317.50;519591;28;919;-71
2024/02/12 00:29:52;;;;;;;2.70;0.90;;;;;;;9.20;80.29;92323.75;519515;28;814;-71
2024/02/12 00:30:09;;;;;;;3.22;0.85;;;;;;;9.21;80.15;92316.19;519627;28;813;-70
2024/02/12 00:30:25;;;;;;;2.20;0.82;;;;;;;9.22;80.05;92321.13;519495;28;896;-70
2024/02/12 00:30:40;;;;;;;1.53;1.00;;;;;;;9.29;80.37;92319.59;519589;28;829;-70
2024/02/12 00:30:58;;;;;;;2.63;1.08;;;;;;;9.31;80.37;92322.50;519515;28;840;-71
2024/02/12 00:31:14;;;;;;;3.45;1.00;;;;;;;9.34;80.07;92329.63;519526;28;864;-71
2024/02/12 00:31:30;;;;;;;2.13;0.93;;;;;;;9.32;79.88;92326.72;519474;28;1111;-70
2024/02/12 00:31:46;;;;;;;1.48;0.90;;;;;;;9.32;79.98;92332.22;519655;28;868;-70
2024/02/12 00:32:03;;;;;;;1.15;1.00;;;;;;;9.26;80.54;92323.47;519468;28;928;-70
2024/02/12 00:32:20;;;;;;;3.08;1.30;;;;;;;9.27;80.43;92328.41;519411;28;853;-70
2024/02/12 00:32:38;;;;;;;3.25;1.27;;;;;;;9.31;80.63;92339.03;519301;28;888;-70
2024/02/12 00:32:54;;;;;;;1.60;1.05;;;;;;;9.29;80.70;92333.38;519412;28;915;-71
2024/02/12 00:33:09;;;;;;;1.10;0.90;;;;;;;9.26;80.78;92332.47;519503;28;880;-71
2024/02/12 00:33:25;;;;;;;1.70;1.10;;;;;;;9.27;80.69;92333.91;519590;28;804;-71
2024/02/12 00:33:40;;;;;;;2.13;1.20;;;;;;;9.30;80.96;92332.06;519590;28;877;-71
2024/02/12 00:33:56;;;;;;;2.17;1.17;;;;;;;9.28;80.95;92329.16;519498;28;750;-71
2024/02/12 00:34:12;;;;;;;2.50;1.10;;;;;;;9.24;81.02;92334.34;519603;28;1050;-71
2024/02/12 00:34:33;;;;;;;3.10;0.98;;;;;;;9.24;81.01;92331.59;519569;28;841;-70
2024/02/12 00:34:49;;;;;;;2.72;1.10;;;;;;;9.26;81.10;92342.75;519524;28;829;-71
2024/02/12 00:35:05;;;;;;;2.57;1.10;;;;;;;9.26;81.07;92337.25;519586;28;853;-71
2024/02/12 00:35:21;;;;;;;2.25;0.95;;;;;;;9.24;81.39;92334.34;519371;28;809;-71
2024/02/12 00:35:41;;;;;;;2.63;0.80;;;;;;;9.20;81.22;92340.25;519635;28;1002;-70
2024/02/12 00:35:58;;;;;;;2.15;0.70;;;;;;;9.22;81.33;92340.41;519491;28;1014;-70
2024/02/12 00:36:15;;;;;;;1.77;0.75;;;;;;;9.24;81.42;92342.59;519642;28;828;-71
2024/02/12 00:36:30;;;;;;;1.90;1.00;;;;;;;9.24;81.45;92342.59;519564;28;884;-71
2024/02/12 00:36:46;;;;;;;2.38;1.20;;;;;;;9.21;81.29;92341.69;519539;28;799;-71
2024/02/12 00:37:02;;;;;;;2.08;0.98;;;;;;;9.16;81.34;92343.41;519511;28;864;-71
2024/02/12 00:37:17;;;;;;;1.87;0.87;;;;;;;9.15;81.57;92352.22;519606;28;845;-71
2024/02/12 00:37:34;;;;;;;2.08;1.00;;;;;;;9.16;81.67;92348.91;519521;28;774;-71
2024/02/12 00:37:50;;;;;;;1.70;1.00;;;;;;;9.20;81.83;92347.78;519471;28;1911;-71
2024/02/12 00:38:05;;;;;;;2.17;1.05;;;;;;;9.22;81.73;92348.69;519559;28;845;-71
2024/02/12 00:38:21;;;;;;;2.40;1.27;;;;;;;9.25;81.45;92349.56;519569;28;754;-71
2024/02/12 00:38:39;;;;;;;1.30;1.00;;;;;;;9.27;81.72;92344.22;517512;28;849;-71
2024/02/12 00:38:54;;;;;;;1.73;0.98;;;;;;;9.23;81.53;92336.34;517386;28;864;-71
2024/02/12 00:39:10;;;;;;;1.73;0.90;;;;;;;9.27;81.40;92344.94;517212;28;805;-71
2024/02/12 00:39:25;;;;;;;1.17;1.00;;;;;;;9.12;81.21;92320.31;517145;28;774;-71
2024/02/12 00:39:41;;;;;;;1.75;1.10;;;;;;;9.31;81.23;92344.56;517144;28;794;-71
2024/02/12 00:39:58;;;;;;;2.73;1.10;;;;;;;9.32;81.00;92343.25;517178;28;817;-71
2024/02/12 00:40:15;;;;;;;2.33;1.08;;;;;;;9.33;81.09;92341.97;517294;28;901;-71
2024/02/12 00:40:30;;;;;;;1.85;0.90;;;;;;;9.31;81.18;92342.53;518314;28;924;-71
2024/02/12 00:40:46;;;;;;;2.83;0.90;;;;;;;9.18;80.73;92339.38;519367;28;861;-71
2024/02/12 00:41:01;;;;;;;2.53;1.07;;;;;;;9.10;80.77;92334.66;519365;28;829;-71
2024/02/12 00:41:20;;;;;;;1.05;0.90;;;;;;;8.96;80.84;92339.03;519378;28;762;-71
2024/02/12 00:41:36;;;;;;;2.30;1.00;;;;;;;8.88;81.41;92332.84;519348;28;856;-71
2024/02/12 00:41:52;;;;;;;3.90;1.20;;;;;;;8.86;81.86;92338.19;519315;28;923;-71
2024/02/12 00:42:12;;;;;;;3.70;1.10;;;;;;;8.90;82.03;92338.50;519361;28;844;-71
2024/02/12 00:42:27;;;;;;;2.58;0.90;;;;;;;8.95;81.85;92337.56;519352;28;907;-71
2024/02/12 00:42:44;;;;;;;2.17;0.90;;;;;;;8.99;81.86;92337.88;519307;28;1098;-71
2024/02/12 00:43:00;;;;;;;2.30;1.02;;;;;;;9.02;81.58;92336.75;519249;28;932;-71
2024/02/12 00:43:16;;;;;;;2.15;1.10;;;;;;;9.05;81.45;92335.63;519385;28;892;-71
2024/02/12 00:43:32;;;;;;;2.90;1.10;;;;;;;9.06;81.67;92337.09;519297;28;1064;-71
2024/02/12 00:43:51;;;;;;;3.33;1.10;;;;;;;9.08;81.63;92340.00;519395;28;923;-71
2024/02/12 00:44:06;;;;;;;2.70;1.15;;;;;;;9.12;81.68;92337.56;520306;28;1159;-71
2024/02/12 00:44:22;;;;;;;3.97;1.17;;;;;;;9.05;82.03;92334.91;521395;28;844;-71
2024/02/12 00:44:40;;;;;;;3.77;1.17;;;;;;;8.99;82.26;92337.16;521455;28;836;-71
2024/02/12 00:44:56;;;;;;;4.15;1.00;;;;;;;8.95;82.62;92329.28;521337;28;973;-71
2024/02/12 00:45:11;;;;;;;2.75;1.05;;;;;;;8.95;82.57;92339.56;521512;28;790;-71
2024/02/12 00:45:27;;;;;;;2.95;1.10;;;;;;;8.96;82.93;92335.53;521364;28;774;-71
2024/02/12 00:45:43;;;;;;;4.15;1.10;;;;;;;8.91;82.99;92337.22;521307;28;977;-71
2024/02/12 00:45:59;;;;;;;2.70;1.23;;;;;;;8.85;83.08;92338.75;521458;28;817;-71
2024/02/12 00:46:15;;;;;;;2.80;1.30;;;;;;;8.86;83.40;92345.72;521403;28;853;-71
2024/02/12 00:46:30;;;;;;;4.43;1.37;;;;;;;8.87;83.29;92344.44;521409;28;805;-71
2024/02/12 00:46:47;;;;;;;5.70;1.50;;;;;;;8.90;83.20;92346.06;520524;28;1185;-71
2024/02/12 00:47:03;;;;;;;4.57;1.45;;;;;;;8.94;83.15;92346.38;519288;28;1642;-71
2024/02/12 00:47:19;;;;;;;3.03;1.20;;;;;;;8.95;83.48;92340.31;519192;28;1584;-71
2024/02/12 00:47:34;;;;;;;2.77;1.07;;;;;;;8.99;83.20;92348.88;519418;28;786;-71
2024/02/12 00:47:50;;;;;;;2.87;1.10;;;;;;;9.03;83.41;92340.25;519106;28;1355;-71
2024/02/12 00:48:06;;;;;;;3.95;1.15;;;;;;;9.07;83.12;92346.78;519385;28;797;-71
2024/02/12 00:48:22;;;;;;;4.13;1.20;;;;;;;9.02;83.22;92331.25;519367;28;785;-71
2024/02/12 00:48:38;;;;;;;2.47;1.10;;;;;;;9.13;83.51;92341.06;519366;28;864;-71
2024/02/12 00:48:53;;;;;;;2.75;1.10;;;;;;;9.14;83.28;92348.00;519386;28;801;-71
2024/02/12 00:49:09;;;;;;;3.33;1.27;;;;;;;9.15;83.22;92336.44;519335;28;817;-71
2024/02/12 00:49:25;;;;;;;2.63;1.20;;;;;;;9.16;83.15;92335.13;519421;28;774;-71
2024/02/12 00:49:43;;;;;;;1.67;1.10;;;;;;;9.16;83.41;92342.66;519432;28;829;-71
2024/02/12 00:49:59;;;;;;;2.28;1.08;;;;;;;9.18;82.99;92344.88;519305;28;845;-71
2024/02/12 00:50:15;;;;;;;3.78;1.15;;;;;;;9.16;83.10;92335.13;519384;28;773;-71
2024/02/12 00:50:32;;;;;;;4.07;1.20;;;;;;;9.18;83.00;92342.84;519227;28;805;-71
2024/02/12 00:50:48;;;;;;;3.08;1.23;;;;;;;9.20;82.89;92345.75;519397;28;840;-72
2024/02/12 00:51:03;;;;;;;2.20;1.00;;;;;;;9.21;83.19;92346.47;519363;28;789;-71
2024/02/12 00:51:19;;;;;;;1.53;1.10;;;;;;;9.22;82.85;92342.44;519309;28;1155;-71
2024/02/12 00:51:34;;;;;;;1.90;1.13;;;;;;;9.23;82.97;92338.38;519406;28;785;-71
2024/02/12 00:51:50;;;;;;;2.77;1.00;;;;;;;9.22;82.65;92350.69;519338;28;765;-71
2024/02/12 00:52:07;;;;;;;3.55;1.15;;;;;;;9.08;82.80;92320.72;519469;28;927;-71
2024/02/12 00:52:26;;;;;;;4.55;1.50;;;;;;;9.19;82.93;92344.28;519391;28;900;-71
2024/02/12 00:52:42;;;;;;;4.20;1.40;;;;;;;9.12;83.28;92343.06;519336;28;940;-71
2024/02/12 00:52:58;;;;;;;3.63;1.17;;;;;;;9.10;83.11;92342.91;519244;28;1041;-71
2024/02/12 00:53:15;;;;;;;3.60;1.30;;;;;;;9.11;83.33;92346.41;519403;28;876;-71
2024/02/12 00:53:30;;;;;;;2.25;1.20;;;;;;;9.11;83.33;92347.13;519348;28;821;-71
2024/02/12 00:53:46;;;;;;;1.97;1.03;;;;;;;9.11;83.35;92349.16;519441;28;746;-72
2024/02/12 00:54:02;;;;;;;2.20;1.00;;;;;;;9.12;83.30;92342.34;519370;28;841;-71
2024/02/12 00:54:17;;;;;;;1.65;0.90;;;;;;;9.10;83.32;92344.94;519385;28;924;-71
2024/02/12 00:54:35;;;;;;;1.47;0.90;;;;;;;9.07;83.42;92346.78;519604;28;805;-71
2024/02/12 00:54:52;;;;;;;1.80;1.10;;;;;;;9.08;83.65;92342.00;519441;28;927;-71
2024/02/12 00:55:08;;;;;;;2.15;1.00;;;;;;;9.04;83.50;92339.69;519581;28;821;-71
2024/02/12 00:55:23;;;;;;;2.97;0.93;;;;;;;9.03;83.63;92346.47;519579;28;935;-71
2024/02/12 00:55:39;;;;;;;3.13;1.10;;;;;;;8.99;83.72;92343.38;519495;28;829;-71
2024/02/12 00:55:55;;;;;;;2.30;1.00;;;;;;;8.97;83.66;92340.47;519492;28;821;-71
2024/02/12 00:56:11;;;;;;;1.42;0.70;;;;;;;9.00;83.31;92342.09;519532;28;965;-71
2024/02/12 00:56:26;;;;;;;2.10;0.90;;;;;;;9.03;83.25;92345.75;519468;28;833;-71
2024/02/12 00:56:46;;;;;;;1.80;0.93;;;;;;;9.05;83.13;92343.88;519474;28;837;-71
2024/02/12 00:57:02;;;;;;;1.40;0.80;;;;;;;9.00;82.90;92339.34;519460;28;900;-71
2024/02/12 00:57:20;;;;;;;1.65;0.80;;;;;;;8.97;82.92;92340.47;519561;28;770;-71
2024/02/12 00:57:36;;;;;;;3.13;0.85;;;;;;;8.96;82.91;92335.53;519541;28;845;-71
2024/02/12 00:57:51;;;;;;;2.07;0.83;;;;;;;8.93;82.88;92340.16;519348;28;1965;-71
2024/02/12 00:58:07;;;;;;;2.00;0.93;;;;;;;8.90;83.07;92333.00;519591;28;825;-71
2024/02/12 00:58:22;;;;;;;2.22;0.93;;;;;;;8.87;83.58;92327.91;519519;28;853;-70
2024/02/12 00:58:38;;;;;;;4.00;1.10;;;;;;;8.84;83.73;92334.53;519559;28;793;-71
2024/02/12 00:58:54;;;;;;;2.83;0.95;;;;;;;8.82;83.64;92335.09;519455;28;868;-71
2024/02/12 00:59:19;;;;;;;1.52;0.93;;;;;;;8.62;84.16;92300.44;519510;28;833;-71
2024/02/12 00:59:41;;;;;;;2.55;0.90;;;;;;;8.77;84.25;92327.81;519585;28;903;-71
2024/02/12 00:59:57;;;;;;;2.90;1.20;;;;;;;8.77;84.74;92321.59;519535;28;868;-71
2024/02/12 01:00:14;;;;;;;2.65;1.10;;;;;;;8.74;85.24;92322.72;519435;28;834;-71
2024/02/12 01:00:30;;;;;;;3.75;1.10;;;;;;;8.72;85.36;92326.03;519401;28;861;-71
2024/02/12 01:00:45;;;;;;;3.03;0.85;;;;;;;8.69;85.36;92323.66;519571;28;769;-71
2024/02/12 01:01:03;;;;;;;0.93;0.70;;;;;;;8.67;85.24;92318.72;519536;28;829;-71
2024/02/12 01:01:19;;;;;;;1.88;1.00;;;;;;;8.66;85.44;92316.56;519485;28;891;-71
2024/02/12 01:01:34;;;;;;;2.67;1.10;;;;;;;8.64;85.38;92319.84;519545;28;809;-71
2024/02/12 01:01:50;;;;;;;2.30;1.30;;;;;;;8.66;85.66;92316.56;519535;28;829;-71
2024/02/12 01:02:05;;;;;;;3.65;1.70;;;;;;;8.67;85.59;92315.25;519557;28;939;-71
2024/02/12 01:02:22;;;;;;;3.53;1.47;;;;;;;8.70;85.56;92317.63;519538;28;785;-71
2024/02/12 01:02:40;;;;;;;2.10;1.10;;;;;;;8.72;85.76;92309.53;519559;28;955;-71
2024/02/12 01:02:55;;;;;;;3.50;1.00;;;;;;;8.75;85.59;92308.38;519395;28;841;-71
2024/02/12 01:03:11;;;;;;;3.50;1.10;;;;;;;8.75;85.48;92311.13;519539;28;932;-71
2024/02/12 01:03:26;;;;;;;4.88;1.40;;;;;;;8.74;85.19;92309.69;519521;28;829;-71
2024/02/12 01:03:42;;;;;;;4.60;1.43;;;;;;;8.74;85.56;92304.19;519561;28;935;-71
2024/02/12 01:03:57;;;;;;;2.63;1.40;;;;;;;8.75;85.40;92304.91;519482;28;861;-71
2024/02/12 01:04:13;;;;;;;2.73;1.40;;;;;;;8.77;85.47;92305.09;519542;28;907;-71
2024/02/12 01:04:28;;;;;;;2.78;1.30;;;;;;;8.75;85.27;92302.16;519509;28;836;-71
2024/02/12 01:04:44;;;;;;;2.70;1.40;;;;;;;8.75;85.52;92304.91;519589;28;943;-71
2024/02/12 01:05:00;;;;;;;3.83;1.70;;;;;;;8.75;85.60;92311.13;519366;28;848;-71
2024/02/12 01:05:17;;;;;;;3.85;1.50;;;;;;;8.77;85.37;92299.56;519508;28;933;-71
2024/02/12 01:05:32;;;;;;;3.50;1.17;;;;;;;8.70;85.19;92301.09;519501;28;896;-71
2024/02/12 01:05:48;;;;;;;2.67;1.10;;;;;;;8.70;85.12;92303.84;519385;28;861;-71
2024/02/12 01:06:03;;;;;;;2.08;0.93;;;;;;;8.69;85.16;92302.38;519518;28;841;-71
2024/02/12 01:06:19;;;;;;;2.20;0.90;;;;;;;8.69;85.41;92294.13;519503;28;935;-72
2024/02/12 01:06:34;;;;;;;1.45;0.90;;;;;;;8.65;85.88;92304.06;519656;28;813;-71
2024/02/12 01:06:50;;;;;;;1.13;0.80;;;;;;;8.58;86.23;92297.34;519462;28;908;-71
2024/02/12 01:07:05;;;;;;;2.63;1.00;;;;;;;8.52;86.70;92296.84;519418;28;848;-71
2024/02/12 01:07:23;;;;;;;3.63;1.00;;;;;;;8.53;86.92;92306.56;519494;28;785;-71
2024/02/12 01:07:41;;;;;;;3.53;1.17;;;;;;;8.54;87.14;92296.28;519523;28;1630;-71
2024/02/12 01:07:57;;;;;;;2.17;0.95;;;;;;;8.56;86.91;92297.19;519469;28;821;-71
2024/02/12 01:08:12;;;;;;;1.50;0.80;;;;;;;8.57;87.03;92304.16;519576;28;778;-71
2024/02/12 01:08:28;;;;;;;2.80;1.10;;;;;;;8.57;87.14;92293.16;519474;28;793;-71
2024/02/12 01:08:43;;;;;;;3.15;1.20;;;;;;;8.60;87.06;92297.50;519595;28;766;-71
2024/02/12 01:08:59;;;;;;;2.43;1.00;;;;;;;8.62;87.09;92300.44;519486;28;790;-71
2024/02/12 01:09:14;;;;;;;1.88;0.90;;;;;;;8.67;87.00;92299.47;519541;28;829;-71
2024/02/12 01:09:30;;;;;;;1.90;0.90;;;;;;;8.71;86.67;92293.56;519462;28;757;-71
2024/02/12 01:09:46;;;;;;;3.42;1.08;;;;;;;8.74;86.64;92295.94;519515;28;919;-71
2024/02/12 01:10:03;;;;;;;5.47;1.25;;;;;;;8.76;86.31;92298.84;519352;28;880;-71
2024/02/12 01:10:18;;;;;;;3.65;1.00;;;;;;;8.79;86.08;92299.75;519484;28;901;-71
2024/02/12 01:10:33;;;;;;;2.28;0.90;;;;;;;8.79;85.94;92294.25;519489;28;840;-71
2024/02/12 01:10:50;;;;;;;2.50;1.03;;;;;;;8.82;86.04;92291.06;519497;28;738;-71
2024/02/12 01:11:06;;;;;;;2.50;1.05;;;;;;;8.85;85.90;92295.47;519467;28;889;-71
2024/02/12 01:11:22;;;;;;;3.80;1.40;;;;;;;8.86;85.67;92288.66;519364;28;874;-71
2024/02/12 01:11:38;;;;;;;3.47;1.15;;;;;;;8.77;85.58;92272.75;519538;28;794;-71
2024/02/12 01:11:55;;;;;;;2.35;1.00;;;;;;;8.91;85.52;92287.69;519551;28;801;-71
2024/02/12 01:12:11;;;;;;;1.60;1.02;;;;;;;8.95;85.35;92298.28;519550;28;923;-71
2024/02/12 01:12:26;;;;;;;2.13;1.00;;;;;;;8.97;85.41;92290.91;519530;28;794;-71
2024/02/12 01:12:43;;;;;;;2.17;0.83;;;;;;;8.86;85.30;92269.38;519347;28;860;-71
2024/02/12 01:12:59;;;;;;;3.60;0.88;;;;;;;8.81;85.38;92255.88;519469;28;849;-71
2024/02/12 01:13:14;;;;;;;3.88;0.90;;;;;;;9.04;85.09;92284.63;519537;28;866;-71
2024/02/12 01:13:31;;;;;;;1.83;0.90;;;;;;;9.07;85.05;92286.22;519460;28;829;-71
2024/02/12 01:13:46;;;;;;;1.83;0.90;;;;;;;9.09;84.91;92285.66;519575;28;852;-71
2024/02/12 01:14:02;;;;;;;2.50;0.93;;;;;;;9.12;84.83;92292.78;519413;28;778;-71
2024/02/12 01:14:19;;;;;;;3.55;1.00;;;;;;;9.14;85.01;92284.69;519505;28;805;-71
2024/02/12 01:14:36;;;;;;;3.28;0.90;;;;;;;9.15;84.82;92283.41;519565;28;849;-71
2024/02/12 01:14:53;;;;;;;2.00;0.90;;;;;;;9.15;84.82;92284.13;519469;28;849;-71
2024/02/12 01:15:10;;;;;;;2.25;0.90;;;;;;;8.96;84.70;92255.72;519447;28;920;-71
2024/02/12 01:15:25;;;;;;;3.53;1.00;;;;;;;9.18;84.87;92282.28;519412;28;984;-71
2024/02/12 01:15:40;;;;;;;4.55;1.20;;;;;;;9.18;84.63;92285.72;519463;28;1082;-71
2024/02/12 01:15:56;;;;;;;3.00;1.20;;;;;;;9.21;84.30;92283.13;519409;28;809;-71
2024/02/12 01:16:11;;;;;;;1.73;1.20;;;;;;;8.97;84.45;92248.88;519481;28;789;-71
2024/02/12 01:16:32;;;;;;;2.37;1.00;;;;;;;9.23;84.04;92277.78;519497;28;758;-71
2024/02/12 01:16:47;;;;;;;1.67;0.80;;;;;;;9.25;83.85;92280.72;519447;28;932;-71
2024/02/12 01:17:04;;;;;;;1.77;0.80;;;;;;;9.24;83.73;92282.75;519500;28;773;-71
2024/02/12 01:17:21;;;;;;;1.70;0.85;;;;;;;9.22;83.90;92282.59;519469;28;1067;-71
2024/02/12 01:17:37;;;;;;;2.22;0.90;;;;;;;9.20;83.75;92282.44;519603;28;837;-71
2024/02/12 01:17:53;;;;;;;2.80;1.00;;;;;;;9.18;83.88;92280.22;519258;28;1980;-71
2024/02/12 01:18:09;;;;;;;4.25;1.20;;;;;;;9.18;83.93;92281.53;519422;28;849;-71
2024/02/12 01:18:24;;;;;;;3.77;1.10;;;;;;;9.18;84.18;92274.72;519511;28;981;-71
2024/02/12 01:18:40;;;;;;;1.65;1.00;;;;;;;9.17;84.06;92278.03;519573;28;793;-71
2024/02/12 01:18:55;;;;;;;1.97;1.10;;;;;;;9.18;84.08;92277.47;519478;28;897;-71
2024/02/12 01:19:11;;;;;;;2.47;1.10;;;;;;;9.19;84.01;92278.19;519505;28;880;-71
2024/02/12 01:19:26;;;;;;;2.50;1.07;;;;;;;9.20;83.86;92276.91;519533;28;754;-71
2024/02/12 01:19:44;;;;;;;2.10;0.85;;;;;;;9.22;83.98;92271.56;519415;28;774;-71
2024/02/12 01:19:59;;;;;;;1.60;0.80;;;;;;;9.25;83.94;92269.72;519426;28;907;-71
2024/02/12 01:20:16;;;;;;;1.40;0.90;;;;;;;9.23;83.54;92269.53;519551;28;853;-71
2024/02/12 01:20:31;;;;;;;2.20;1.20;;;;;;;9.20;83.50;92273.44;519426;28;904;-71